Baimuru Airport


Codes: PG-VMU/VMU
Name: Baimuru Airport
City: Baimuru
Country: Papua New Guinea
Elevation: 27 ft.
Wikipedia:

Photos at Baimuru Airport


   Photos courtesy of SpottingLog. You can add your own sightings and photos by signing up for a free trial today.



No photos found.

Weather at Baimuru Airport


Time (UTC)DescriptionTempratureWindCloud coverageVisibilityPressureHumidity
21-Jun-2024 12:00Moderate Rain23°C0 mph, SE77%7543m1013hPa100%
21-Jun-2024 15:00Light Rain23°C0 mph, SE84%9117m1013hPa100%
21-Jun-2024 18:00Light Rain23°C0 mph, W92%3120m1012hPa100%
21-Jun-2024 21:00Light Rain23°C0 mph, N100%10000m1013hPa100%
22-Jun-2024 00:00Broken Clouds28°C0 mph, SW77%10000m1013hPa80%
22-Jun-2024 03:00Scattered Clouds29°C7 mph, SW42%10000m1010hPa70%
22-Jun-2024 06:00Light Rain27°C7 mph, S51%10000m1009hPa82%
22-Jun-2024 09:00Light Rain24°C2 mph, SE16%10000m1011hPa95%
22-Jun-2024 12:00Light Rain24°C2 mph, NE47%10000m1012hPa97%
22-Jun-2024 15:00Light Rain23°C0 mph, NE92%10000m1011hPa98%
22-Jun-2024 18:00Light Rain23°C2 mph, NE96%10000m1011hPa99%
22-Jun-2024 21:00Light Rain23°C2 mph, NE94%10000m1011hPa99%
23-Jun-2024 00:00Light Rain27°C2 mph, SE86%10000m1012hPa86%
23-Jun-2024 03:00Light Rain28°C4 mph, S66%10000m1009hPa82%
23-Jun-2024 06:00Light Rain28°C7 mph, S60%10000m1007hPa81%
23-Jun-2024 09:00Light Rain24°C2 mph, S37%10000m1009hPa96%
23-Jun-2024 12:00Light Rain23°C2 mph, NE41%10000m1011hPa99%
23-Jun-2024 15:00Light Rain23°C2 mph, N65%10000m1009hPa99%
23-Jun-2024 18:00Broken Clouds23°C2 mph, NW75%10000m1008hPa99%
23-Jun-2024 21:00Overcast Clouds23°C0 mph, NE94%10000m1009hPa98%
24-Jun-2024 00:00Overcast Clouds27°C0 mph, W96%10000m1010hPa81%
24-Jun-2024 03:00Light Rain29°C4 mph, S77%10000m1007hPa73%
24-Jun-2024 06:00Broken Clouds28°C7 mph, S75%10000m1006hPa76%
24-Jun-2024 09:00Scattered Clouds24°C2 mph, S48%10000m1008hPa96%
24-Jun-2024 12:00Broken Clouds24°C0 mph, E55%10000m1010hPa99%
24-Jun-2024 15:00Moderate Rain23°C0 mph, N95%10000m1009hPa100%
24-Jun-2024 18:00Moderate Rain23°C2 mph, NW96%10000m1009hPa100%
24-Jun-2024 21:00Light Rain23°C2 mph, NW100%10000m1009hPa100%
25-Jun-2024 00:00Overcast Clouds28°C0 mph, SW96%10000m1010hPa83%
25-Jun-2024 03:00Light Rain30°C4 mph, SW68%10000m1007hPa68%
25-Jun-2024 06:00Broken Clouds29°C4 mph, S83%10000m1006hPa75%
25-Jun-2024 09:00Light Rain25°C4 mph, S100%10000m1009hPa97%
25-Jun-2024 12:00Light Rain24°C0 mph, N100%10000m1010hPa99%
25-Jun-2024 15:00Light Rain24°C2 mph, NW100%10000m1010hPa100%
25-Jun-2024 18:00Overcast Clouds24°C2 mph, NW100%10000m1010hPa100%
25-Jun-2024 21:00Overcast Clouds24°C2 mph, N98%10000m1011hPa100%
26-Jun-2024 00:00Overcast Clouds29°C2 mph, NW87%10000m1011hPa78%
26-Jun-2024 03:00Broken Clouds31°C4 mph, SW74%10000m1008hPa63%
26-Jun-2024 06:00Broken Clouds29°C4 mph, SW79%10000m1007hPa73%
26-Jun-2024 09:00Broken Clouds25°C2 mph, S72%10000m1008hPa94%